sensor_id;sensor_type;location;lat;lon;timestamp;P1;durP1;ratioP1;P2;durP2;ratioP2
21517;SDS011;61765;45.794;24.150;2023-02-11T00:07:55;132.18;;;55.88;;
21517;SDS011;61765;45.794;24.150;2023-02-11T00:16:04;127.78;;;54.95;;
21517;SDS011;61765;45.794;24.150;2023-02-11T00:24:13;133.00;;;56.75;;
21517;SDS011;61765;45.794;24.150;2023-02-11T00:32:19;133.07;;;56.95;;
21517;SDS011;61765;45.794;24.150;2023-02-11T00:40:27;143.32;;;58.60;;
21517;SDS011;61765;45.794;24.150;2023-02-11T00:48:32;131.75;;;57.60;;
21517;SDS011;61765;45.794;24.150;2023-02-11T00:56:41;120.55;;;52.50;;
21517;SDS011;61765;45.794;24.150;2023-02-11T01:04:46;126.32;;;52.63;;
21517;SDS011;61765;45.794;24.150;2023-02-11T01:12:54;116.80;;;48.28;;
21517;SDS011;61765;45.794;24.150;2023-02-11T01:21:00;92.68;;;43.05;;
21517;SDS011;61765;45.794;24.150;2023-02-11T01:29:08;96.57;;;42.75;;
21517;SDS011;61765;45.794;24.150;2023-02-11T01:37:13;89.30;;;42.75;;
21517;SDS011;61765;45.794;24.150;2023-02-11T01:54:01;99.13;;;42.75;;
21517;SDS011;61765;45.794;24.150;2023-02-11T02:02:24;94.30;;;43.35;;
21517;SDS011;61765;45.794;24.150;2023-02-11T02:10:34;99.68;;;42.33;;
21517;SDS011;61765;45.794;24.150;2023-02-11T02:18:47;109.10;;;48.17;;
21517;SDS011;61765;45.794;24.150;2023-02-11T02:27:07;111.80;;;47.08;;
21517;SDS011;61765;45.794;24.150;2023-02-11T02:35:30;110.38;;;46.72;;
21517;SDS011;61765;45.794;24.150;2023-02-11T02:43:45;101.53;;;47.22;;
21517;SDS011;61765;45.794;24.150;2023-02-11T02:51:59;118.25;;;52.45;;
21517;SDS011;61765;45.794;24.150;2023-02-11T03:00:12;113.10;;;50.63;;
21517;SDS011;61765;45.794;24.150;2023-02-11T03:08:29;118.40;;;54.10;;
21517;SDS011;61765;45.794;24.150;2023-02-11T03:16:38;114.55;;;50.47;;
21517;SDS011;61765;45.794;24.150;2023-02-11T03:24:46;118.15;;;51.92;;
21517;SDS011;61765;45.794;24.150;2023-02-11T03:32:54;119.07;;;51.67;;
21517;SDS011;61765;45.794;24.150;2023-02-11T03:41:04;115.95;;;49.13;;
21517;SDS011;61765;45.794;24.150;2023-02-11T03:49:11;118.28;;;49.05;;
21517;SDS011;61765;45.794;24.150;2023-02-11T03:57:23;106.38;;;46.17;;
21517;SDS011;61765;45.794;24.150;2023-02-11T04:05:28;97.68;;;43.00;;
21517;SDS011;61765;45.794;24.150;2023-02-11T04:13:36;103.80;;;44.88;;
21517;SDS011;61765;45.794;24.150;2023-02-11T04:21:42;110.20;;;44.55;;
21517;SDS011;61765;45.794;24.150;2023-02-11T04:29:50;92.20;;;40.33;;
21517;SDS011;61765;45.794;24.150;2023-02-11T04:37:55;95.93;;;42.97;;
21517;SDS011;61765;45.794;24.150;2023-02-11T04:46:03;99.07;;;42.40;;
21517;SDS011;61765;45.794;24.150;2023-02-11T04:54:09;99.95;;;43.47;;
21517;SDS011;61765;45.794;24.150;2023-02-11T05:02:18;96.25;;;41.70;;
21517;SDS011;61765;45.794;24.150;2023-02-11T05:10:23;101.28;;;41.40;;
21517;SDS011;61765;45.794;24.150;2023-02-11T05:18:32;94.47;;;41.10;;
21517;SDS011;61765;45.794;24.150;2023-02-11T05:26:37;85.90;;;39.88;;
21517;SDS011;61765;45.794;24.150;2023-02-11T05:34:45;84.15;;;38.22;;
21517;SDS011;61765;45.794;24.150;2023-02-11T05:42:50;97.90;;;42.70;;
21517;SDS011;61765;45.794;24.150;2023-02-11T05:50:59;83.10;;;36.65;;
21517;SDS011;61765;45.794;24.150;2023-02-11T05:59:04;86.03;;;35.83;;
21517;SDS011;61765;45.794;24.150;2023-02-11T06:07:12;92.88;;;39.00;;
21517;SDS011;61765;45.794;24.150;2023-02-11T06:15:18;101.70;;;43.92;;
21517;SDS011;61765;45.794;24.150;2023-02-11T06:23:26;106.15;;;45.53;;
21517;SDS011;61765;45.794;24.150;2023-02-11T06:31:31;102.35;;;42.80;;
21517;SDS011;61765;45.794;24.150;2023-02-11T06:39:39;109.70;;;46.42;;
21517;SDS011;61765;45.794;24.150;2023-02-11T06:47:47;100.93;;;44.60;;
21517;SDS011;61765;45.794;24.150;2023-02-11T06:56:00;101.68;;;40.67;;
21517;SDS011;61765;45.794;24.150;2023-02-11T07:04:06;99.57;;;41.03;;
21517;SDS011;61765;45.794;24.150;2023-02-11T07:12:14;89.93;;;37.78;;
21517;SDS011;61765;45.794;24.150;2023-02-11T07:20:20;86.70;;;39.10;;
21517;SDS011;61765;45.794;24.150;2023-02-11T07:28:28;89.57;;;39.10;;
21517;SDS011;61765;45.794;24.150;2023-02-11T07:36:33;94.60;;;41.15;;
21517;SDS011;61765;45.794;24.150;2023-02-11T07:44:41;92.03;;;41.47;;
21517;SDS011;61765;45.794;24.150;2023-02-11T07:52:49;92.75;;;41.58;;
21517;SDS011;61765;45.794;24.150;2023-02-11T08:01:01;84.63;;;39.47;;
21517;SDS011;61765;45.794;24.150;2023-02-11T08:09:08;86.53;;;40.85;;
21517;SDS011;61765;45.794;24.150;2023-02-11T08:17:21;93.57;;;44.78;;
21517;SDS011;61765;45.794;24.150;2023-02-11T08:25:26;92.30;;;43.15;;
21517;SDS011;61765;45.794;24.150;2023-02-11T08:33:34;77.43;;;38.88;;
21517;SDS011;61765;45.794;24.150;2023-02-11T08:41:41;79.10;;;38.78;;
21517;SDS011;61765;45.794;24.150;2023-02-11T08:49:49;85.85;;;41.78;;
21517;SDS011;61765;45.794;24.150;2023-02-11T08:57:55;88.28;;;44.97;;
21517;SDS011;61765;45.794;24.150;2023-02-11T09:06:04;83.05;;;43.15;;
21517;SDS011;61765;45.794;24.150;2023-02-11T09:14:14;71.63;;;37.70;;
21517;SDS011;61765;45.794;24.150;2023-02-11T09:22:24;71.35;;;40.83;;
21517;SDS011;61765;45.794;24.150;2023-02-11T09:30:30;73.78;;;40.72;;
21517;SDS011;61765;45.794;24.150;2023-02-11T09:38:39;63.70;;;38.30;;
21517;SDS011;61765;45.794;24.150;2023-02-11T09:46:46;51.78;;;33.50;;
21517;SDS011;61765;45.794;24.150;2023-02-11T09:55:00;52.88;;;31.83;;
21517;SDS011;61765;45.794;24.150;2023-02-11T10:03:13;49.95;;;32.08;;
21517;SDS011;61765;45.794;24.150;2023-02-11T10:11:33;50.67;;;31.63;;
21517;SDS011;61765;45.794;24.150;2023-02-11T10:19:49;48.47;;;31.50;;
21517;SDS011;61765;45.794;24.150;2023-02-11T10:28:12;55.38;;;34.58;;
21517;SDS011;61765;45.794;24.150;2023-02-11T10:36:19;66.45;;;42.97;;
21517;SDS011;61765;45.794;24.150;2023-02-11T10:44:30;87.65;;;47.40;;
21517;SDS011;61765;45.794;24.150;2023-02-11T10:52:39;86.03;;;48.47;;
21517;SDS011;61765;45.794;24.150;2023-02-11T11:00:48;81.88;;;44.45;;
21517;SDS011;61765;45.794;24.150;2023-02-11T11:08:56;87.90;;;48.00;;
21517;SDS011;61765;45.794;24.150;2023-02-11T11:17:11;81.07;;;41.25;;
21517;SDS011;61765;45.794;24.150;2023-02-11T11:25:23;95.47;;;51.15;;
21517;SDS011;61765;45.794;24.150;2023-02-11T11:33:33;87.15;;;45.50;;
21517;SDS011;61765;45.794;24.150;2023-02-11T11:41:40;79.32;;;39.35;;
21517;SDS011;61765;45.794;24.150;2023-02-11T11:50:08;69.55;;;34.20;;
21517;SDS011;61765;45.794;24.150;2023-02-11T11:58:27;60.53;;;29.23;;
21517;SDS011;61765;45.794;24.150;2023-02-11T12:06:39;61.30;;;31.13;;
21517;SDS011;61765;45.794;24.150;2023-02-11T12:14:57;54.28;;;28.08;;
21517;SDS011;61765;45.794;24.150;2023-02-11T12:23:20;42.50;;;23.27;;
21517;SDS011;61765;45.794;24.150;2023-02-11T12:31:46;37.22;;;20.23;;
21517;SDS011;61765;45.794;24.150;2023-02-11T12:40:08;41.60;;;23.08;;
21517;SDS011;61765;45.794;24.150;2023-02-11T12:48:24;54.50;;;28.27;;
21517;SDS011;61765;45.794;24.150;2023-02-11T12:56:53;53.30;;;29.58;;
21517;SDS011;61765;45.794;24.150;2023-02-11T13:13:14;37.97;;;19.00;;
21517;SDS011;61765;45.794;24.150;2023-02-11T13:21:28;34.40;;;17.52;;
21517;SDS011;61765;45.794;24.150;2023-02-11T13:29:47;29.05;;;16.63;;
21517;SDS011;61765;45.794;24.150;2023-02-11T13:38:20;37.88;;;19.88;;
21517;SDS011;61765;45.794;24.150;2023-02-11T13:46:46;38.13;;;20.27;;
21517;SDS011;61765;45.794;24.150;2023-02-11T13:54:55;39.00;;;19.00;;
21517;SDS011;61765;45.794;24.150;2023-02-11T14:11:48;32.97;;;18.00;;
21517;SDS011;61765;45.794;24.150;2023-02-11T14:19:58;34.15;;;19.10;;
21517;SDS011;61765;45.794;24.150;2023-02-11T14:28:07;29.52;;;17.15;;
21517;SDS011;61765;45.794;24.150;2023-02-11T14:36:37;35.47;;;19.17;;
21517;SDS011;61765;45.794;24.150;2023-02-11T14:45:03;38.67;;;20.13;;
21517;SDS011;61765;45.794;24.150;2023-02-11T14:53:15;36.70;;;19.40;;
21517;SDS011;61765;45.794;24.150;2023-02-11T15:01:26;39.42;;;19.48;;
21517;SDS011;61765;45.794;24.150;2023-02-11T15:09:39;43.42;;;23.33;;
21517;SDS011;61765;45.794;24.150;2023-02-11T15:17:46;43.45;;;25.73;;
21517;SDS011;61765;45.794;24.150;2023-02-11T15:25:54;39.70;;;20.30;;
21517;SDS011;61765;45.794;24.150;2023-02-11T15:34:06;38.95;;;21.42;;
21517;SDS011;61765;45.794;24.150;2023-02-11T15:42:19;44.55;;;22.17;;
21517;SDS011;61765;45.794;24.150;2023-02-11T15:58:38;55.60;;;27.80;;
21517;SDS011;61765;45.794;24.150;2023-02-11T16:14:54;48.10;;;24.95;;
21517;SDS011;61765;45.794;24.150;2023-02-11T16:23:00;46.83;;;24.95;;
21517;SDS011;61765;45.794;24.150;2023-02-11T16:31:10;51.95;;;22.67;;
21517;SDS011;61765;45.794;24.150;2023-02-11T16:39:17;50.95;;;25.88;;
21517;SDS011;61765;45.794;24.150;2023-02-11T16:47:26;71.50;;;33.97;;
21517;SDS011;61765;45.794;24.150;2023-02-11T16:55:35;55.50;;;26.48;;
21517;SDS011;61765;45.794;24.150;2023-02-11T17:03:43;53.70;;;25.75;;
21517;SDS011;61765;45.794;24.150;2023-02-11T17:11:49;114.53;;;43.47;;
21517;SDS011;61765;45.794;24.150;2023-02-11T17:20:00;51.20;;;25.63;;
21517;SDS011;61765;45.794;24.150;2023-02-11T17:28:06;42.60;;;23.23;;
21517;SDS011;61765;45.794;24.150;2023-02-11T17:36:15;50.60;;;24.65;;
21517;SDS011;61765;45.794;24.150;2023-02-11T17:44:20;49.15;;;24.95;;
21517;SDS011;61765;45.794;24.150;2023-02-11T17:52:28;51.42;;;25.70;;
21517;SDS011;61765;45.794;24.150;2023-02-11T18:00:34;74.95;;;35.55;;
21517;SDS011;61765;45.794;24.150;2023-02-11T18:08:42;87.80;;;45.05;;
21517;SDS011;61765;45.794;24.150;2023-02-11T18:16:48;105.55;;;52.45;;
21517;SDS011;61765;45.794;24.150;2023-02-11T18:24:56;116.88;;;54.30;;
21517;SDS011;61765;45.794;24.150;2023-02-11T18:33:02;104.72;;;50.00;;
21517;SDS011;61765;45.794;24.150;2023-02-11T18:41:12;96.20;;;47.25;;
21517;SDS011;61765;45.794;24.150;2023-02-11T18:49:18;84.18;;;43.72;;
21517;SDS011;61765;45.794;24.150;2023-02-11T18:57:26;94.50;;;47.13;;
21517;SDS011;61765;45.794;24.150;2023-02-11T19:05:31;100.43;;;46.67;;
21517;SDS011;61765;45.794;24.150;2023-02-11T19:13:47;104.80;;;47.97;;
21517;SDS011;61765;45.794;24.150;2023-02-11T19:21:53;106.40;;;51.95;;
21517;SDS011;61765;45.794;24.150;2023-02-11T19:30:02;132.98;;;64.78;;
21517;SDS011;61765;45.794;24.150;2023-02-11T19:38:07;151.48;;;71.88;;
21517;SDS011;61765;45.794;24.150;2023-02-11T19:46:17;167.30;;;78.03;;
21517;SDS011;61765;45.794;24.150;2023-02-11T19:54:24;170.30;;;80.50;;
21517;SDS011;61765;45.794;24.150;2023-02-11T20:02:33;149.85;;;73.18;;
21517;SDS011;61765;45.794;24.150;2023-02-11T20:10:40;160.32;;;74.13;;
21517;SDS011;61765;45.794;24.150;2023-02-11T20:18:48;145.00;;;70.05;;
21517;SDS011;61765;45.794;24.150;2023-02-11T20:26:54;121.00;;;62.42;;
21517;SDS011;61765;45.794;24.150;2023-02-11T20:35:02;136.25;;;66.03;;
21517;SDS011;61765;45.794;24.150;2023-02-11T20:43:08;120.93;;;61.50;;
21517;SDS011;61765;45.794;24.150;2023-02-11T20:51:18;122.13;;;61.30;;
21517;SDS011;61765;45.794;24.150;2023-02-11T20:59:25;139.40;;;66.43;;
21517;SDS011;61765;45.794;24.150;2023-02-11T21:07:33;128.10;;;64.35;;
21517;SDS011;61765;45.794;24.150;2023-02-11T21:15:39;151.57;;;76.00;;
21517;SDS011;61765;45.794;24.150;2023-02-11T21:23:48;140.43;;;69.30;;
21517;SDS011;61765;45.794;24.150;2023-02-11T21:31:53;147.32;;;72.90;;
21517;SDS011;61765;45.794;24.150;2023-02-11T21:40:01;120.97;;;59.83;;
21517;SDS011;61765;45.794;24.150;2023-02-11T21:48:07;105.70;;;53.22;;
21517;SDS011;61765;45.794;24.150;2023-02-11T21:56:16;96.22;;;46.15;;
21517;SDS011;61765;45.794;24.150;2023-02-11T22:04:22;84.72;;;41.22;;
21517;SDS011;61765;45.794;24.150;2023-02-11T22:12:33;78.00;;;38.85;;
21517;SDS011;61765;45.794;24.150;2023-02-11T22:20:39;81.75;;;41.17;;
21517;SDS011;61765;45.794;24.150;2023-02-11T22:28:47;89.47;;;42.67;;
21517;SDS011;61765;45.794;24.150;2023-02-11T22:36:53;83.57;;;42.25;;
21517;SDS011;61765;45.794;24.150;2023-02-11T22:45:01;81.00;;;39.20;;
21517;SDS011;61765;45.794;24.150;2023-02-11T22:53:08;73.07;;;38.13;;
21517;SDS011;61765;45.794;24.150;2023-02-11T23:01:16;90.72;;;44.88;;
21517;SDS011;61765;45.794;24.150;2023-02-11T23:09:22;104.38;;;49.35;;
21517;SDS011;61765;45.794;24.150;2023-02-11T23:17:30;104.97;;;50.40;;
21517;SDS011;61765;45.794;24.150;2023-02-11T23:25:40;106.78;;;54.17;;
21517;SDS011;61765;45.794;24.150;2023-02-11T23:33:48;105.35;;;51.40;;
21517;SDS011;61765;45.794;24.150;2023-02-11T23:41:54;93.80;;;45.72;;
21517;SDS011;61765;45.794;24.150;2023-02-11T23:50:05;109.45;;;51.65;;
21517;SDS011;61765;45.794;24.150;2023-02-11T23:58:12;96.32;;;47.90;;
